Time;durP1;ratioP1;P1;durP2;ratioP2;P2;SDS_P1;SDS_P2;PMS_P1;PMS_P2;Temp;Humidity;BMP_temperature;BMP_pressure;BME280_temperature;BME280_humidity;BME280_pressure;Samples;Min_cycle;Max_cycle;Signal;HPM_P1;HPM_P2
2022/10/03 00:01:08;;;;;;;7.40;1.50;;;15.00;92.10;;;;;;5012884;28;20040;-74
2022/10/03 00:03:33;;;;;;;8.23;1.48;;;15.10;92.10;;;;;;5013361;28;20150;-74
2022/10/03 00:06:09;;;;;;;9.23;2.00;;;15.10;92.10;;;;;;5013710;28;20102;-74
2022/10/03 00:08:38;;;;;;;12.07;1.52;;;15.00;92.10;;;;;;5013644;28;20076;-73
2022/10/03 00:11:19;;;;;;;9.45;1.95;;;15.00;92.10;;;;;;5013392;28;20450;-74
2022/10/03 00:14:00;;;;;;;7.55;1.70;;;15.00;92.10;;;;;;5013557;28;20106;-74
2022/10/03 00:16:41;;;;;;;7.13;1.48;;;15.00;92.10;;;;;;5013476;28;20073;-75
2022/10/03 00:19:07;;;;;;;8.25;1.42;;;15.10;92.20;;;;;;5013505;28;20037;-73
2022/10/03 00:21:38;;;;;;;8.70;1.80;;;15.10;92.20;;;;;;5013380;28;20109;-73
2022/10/03 00:24:30;;;;;;;6.22;1.30;;;15.10;92.20;;;;;;5013723;28;20060;-73
2022/10/03 00:27:09;;;;;;;6.93;1.58;;;15.10;92.20;;;;;;5013192;28;20049;-74
2022/10/03 00:29:37;;;;;;;9.05;2.05;;;15.10;92.20;;;;;;5013766;28;20072;-74
2022/10/03 00:32:18;;;;;;;10.40;1.90;;;15.10;92.20;;;;;;5035906;28;20599;-74
2022/10/03 00:35:30;;;;;;;10.80;2.20;;;15.10;92.10;;;;;;5019732;28;20030;-74
2022/10/03 00:38:19;;;;;;;9.25;1.95;;;15.00;92.10;;;;;;5013238;28;20029;-74
2022/10/03 00:41:03;;;;;;;7.82;2.20;;;14.90;92.20;;;;;;5013665;28;20022;-74
2022/10/03 00:43:28;;;;;;;10.13;1.80;;;14.90;92.30;;;;;;5013317;28;20020;-74
2022/10/03 00:46:31;;;;;;;9.77;2.03;;;14.80;92.40;;;;;;5013125;28;20470;-74
2022/10/03 00:49:25;;;;;;;8.37;1.97;;;14.80;92.50;;;;;;5013620;28;20088;-74
2022/10/03 00:52:23;;;;;;;9.32;2.35;;;14.70;92.50;;;;;;5019192;28;20192;-73
2022/10/03 00:55:36;;;;;;;12.48;2.20;;;14.60;92.50;;;;;;5019582;28;20061;-73
2022/10/03 00:58:13;;;;;;;9.93;1.80;;;14.60;92.70;;;;;;5016739;28;20397;-73
2022/10/03 01:00:48;;;;;;;10.57;2.10;;;14.50;92.80;;;;;;5012881;28;20034;-73
2022/10/03 01:03:35;;;;;;;7.13;1.50;;;14.50;92.90;;;;;;5013000;28;20112;-73
2022/10/03 01:06:20;;;;;;;7.50;1.90;;;14.60;92.90;;;;;;5013034;28;20076;-73
2022/10/03 01:09:10;;;;;;;8.77;1.45;;;14.60;92.90;;;;;;5013052;28;20069;-73
2022/10/03 01:11:52;;;;;;;9.68;2.08;;;14.60;92.90;;;;;;5013155;28;20576;-73
2022/10/03 01:14:47;;;;;;;9.50;2.40;;;14.60;92.80;;;;;;5016975;28;20040;-73
2022/10/03 01:17:28;;;;;;;11.52;1.90;;;14.60;92.80;;;;;;5016867;28;20034;-73
2022/10/03 01:20:08;;;;;;;10.48;2.08;;;14.50;92.90;;;;;;5016677;28;20034;-73
2022/10/03 01:22:46;;;;;;;6.50;1.40;;;14.50;92.90;;;;;;5016562;28;20022;-73
2022/10/03 01:25:33;;;;;;;7.45;1.38;;;14.60;93.00;;;;;;5016695;28;20022;-73
2022/10/03 01:31:11;;;;;;;9.43;2.05;;;14.60;93.00;;;;;;5024017;28;20061;-73
2022/10/03 01:33:51;;;;;;;10.57;2.03;;;14.60;92.90;;;;;;5016457;28;20025;-73
2022/10/03 01:36:39;;;;;;;6.97;2.13;;;14.70;92.90;;;;;;5016302;28;20033;-73
2022/10/03 01:39:29;;;;;;;7.47;1.83;;;14.60;92.80;;;;;;5016385;28;20100;-73
2022/10/03 01:42:11;;;;;;;7.22;1.60;;;14.60;92.80;;;;;;5016095;28;20022;-73
2022/10/03 01:44:43;;;;;;;6.93;1.63;;;14.60;92.80;;;;;;5015998;28;20036;-73
2022/10/03 01:47:29;;;;;;;8.45;1.77;;;14.60;92.70;;;;;;5015662;28;20536;-73
2022/10/03 01:50:24;;;;;;;5.07;1.20;;;14.60;92.70;;;;;;5015830;28;20037;-73
2022/10/03 01:53:27;;;;;;;10.07;1.83;;;14.60;92.70;;;;;;5016154;28;20034;-73
2022/10/03 01:56:17;;;;;;;10.63;2.00;;;14.60;92.60;;;;;;5015906;28;20033;-73
2022/10/03 01:59:05;;;;;;;6.00;1.60;;;14.60;92.60;;;;;;5015897;28;20034;-73
2022/10/03 02:01:54;;;;;;;4.40;1.10;;;14.60;92.60;;;;;;5015567;28;20030;-73
2022/10/03 02:04:31;;;;;;;7.65;1.88;;;14.50;92.70;;;;;;5015567;28;20377;-73
2022/10/03 02:07:05;;;;;;;6.32;1.60;;;14.60;92.70;;;;;;5015594;28;20480;-73
2022/10/03 02:10:05;;;;;;;7.70;1.90;;;14.60;92.60;;;;;;5015724;28;20405;-74
2022/10/03 02:12:39;;;;;;;7.88;1.63;;;14.50;92.60;;;;;;5015430;28;20558;-73
2022/10/03 02:15:33;;;;;;;6.10;1.60;;;14.50;92.60;;;;;;5015353;28;20033;-73
2022/10/03 02:18:22;;;;;;;7.47;1.83;;;14.60;92.70;;;;;;5015609;28;20381;-73
2022/10/03 02:20:56;;;;;;;9.93;2.00;;;14.60;92.70;;;;;;5015697;28;20064;-74
2022/10/03 02:23:31;;;;;;;7.22;1.85;;;14.50;92.70;;;;;;5017544;28;20080;-73
2022/10/03 02:26:35;;;;;;;4.72;1.50;;;14.60;92.70;;;;;;5034099;28;20041;-75
2022/10/03 02:29:12;;;;;;;;;;;14.60;92.70;;;;;;5019969;28;20496;-74
2022/10/03 02:31:55;;;;;;;9.00;1.77;;;14.60;92.60;;;;;;5015386;28;19917;-74
2022/10/03 02:34:24;;;;;;;;;;;14.60;92.60;;;;;;5015514;28;20033;-73
2022/10/03 02:37:24;;;;;;;6.38;1.73;;;14.50;92.50;;;;;;5014876;28;19963;-73
2022/10/03 02:40:24;;;;;;;7.13;2.03;;;14.50;92.50;;;;;;5015103;28;20040;-73
2022/10/03 02:43:33;;;;;;;8.32;1.73;;;14.50;92.50;;;;;;5014963;28;20486;-74
2022/10/03 02:46:20;;;;;;;4.72;1.67;;;14.50;92.50;;;;;;5015248;28;20029;-73
2022/10/03 02:49:18;;;;;;;7.07;1.92;;;14.50;92.50;;;;;;5014826;28;20033;-74
2022/10/03 02:52:17;;;;;;;8.52;2.13;;;14.40;92.50;;;;;;5014592;28;20041;-74
2022/10/03 02:55:09;;;;;;;6.68;1.90;;;14.30;92.70;;;;;;5014958;28;20092;-74
2022/10/03 02:58:11;;;;;;;9.32;1.88;;;14.30;92.80;;;;;;5014482;28;20084;-74
2022/10/03 03:01:28;;;;;;;10.40;2.05;;;14.30;92.80;;;;;;5014940;28;20386;-74
2022/10/03 03:04:27;;;;;;;8.77;1.90;;;14.20;92.90;;;;;;5016592;28;20038;-74
2022/10/03 03:07:25;;;;;;;7.28;1.98;;;14.10;93.00;;;;;;5014905;28;20095;-74
2022/10/03 03:10:06;;;;;;;6.85;1.98;;;14.00;93.10;;;;;;5014384;28;20469;-74
2022/10/03 03:12:50;;;;;;;6.40;1.98;;;14.00;93.20;;;;;;5014409;28;20034;-74
2022/10/03 03:15:24;;;;;;;9.57;2.20;;;14.00;93.20;;;;;;5014279;28;20495;-74
2022/10/03 03:18:12;;;;;;;7.35;1.83;;;14.00;93.30;;;;;;5014881;28;20022;-73
2022/10/03 03:20:53;;;;;;;9.18;2.38;;;14.00;93.50;;;;;;5021755;28;20096;-71
2022/10/03 03:23:52;;;;;;;8.32;2.10;;;13.90;93.50;;;;;;5027170;28;20382;-72
2022/10/03 03:26:27;;;;;;;8.02;1.77;;;13.90;93.60;;;;;;5015417;28;20049;-73
2022/10/03 03:29:26;;;;;;;6.45;1.70;;;13.80;93.60;;;;;;5014514;28;20037;-72
2022/10/03 03:32:28;;;;;;;6.05;1.75;;;13.80;93.80;;;;;;5014401;28;20034;-73
2022/10/03 03:35:28;;;;;;;8.90;2.10;;;13.90;93.80;;;;;;5013796;28;20466;-73
2022/10/03 03:38:29;;;;;;;8.10;1.80;;;13.90;93.80;;;;;;5013994;28;20033;-73
2022/10/03 03:41:29;;;;;;;7.03;1.85;;;14.00;93.70;;;;;;5013989;28;20057;-73
2022/10/03 03:44:10;;;;;;;7.00;1.30;;;14.00;93.60;;;;;;5014123;28;20028;-73
2022/10/03 03:46:57;;;;;;;5.65;1.52;;;14.00;93.60;;;;;;5014084;28;20025;-73
2022/10/03 03:49:41;;;;;;;5.07;1.45;;;14.00;93.90;;;;;;5013838;28;20026;-73
2022/10/03 03:52:09;;;;;;;5.72;1.67;;;14.10;93.70;;;;;;5013596;28;20386;-73
2022/10/03 03:54:39;;;;;;;5.38;1.50;;;14.10;93.60;;;;;;5013694;28;20029;-74
2022/10/03 03:57:41;;;;;;;8.95;1.90;;;14.10;93.40;;;;;;5013608;28;20512;-74
2022/10/03 04:00:14;;;;;;;4.43;1.60;;;14.10;93.40;;;;;;5013443;28;20033;-74
2022/10/03 04:03:18;;;;;;;4.57;1.33;;;14.10;93.40;;;;;;5013912;28;20057;-74
2022/10/03 04:06:02;;;;;;;6.40;1.83;;;14.20;93.40;;;;;;5014034;28;20026;-74
2022/10/03 04:08:50;;;;;;;6.15;1.90;;;14.20;93.30;;;;;;5013506;28;20030;-73
2022/10/03 04:11:40;;;;;;;5.35;1.33;;;14.30;93.20;;;;;;5013829;28;20037;-74
2022/10/03 04:14:17;;;;;;;8.52;1.70;;;14.30;93.20;;;;;;5013639;28;20390;-74
2022/10/03 04:20:24;;;;;;;5.53;1.33;;;14.20;93.20;;;;;;5028024;28;20084;-73
2022/10/03 04:23:00;;;;;;;5.85;1.40;;;14.30;93.20;;;;;;5016544;28;20022;-73
2022/10/03 04:25:38;;;;;;;7.13;1.70;;;14.20;93.00;;;;;;5013704;28;20030;-74
2022/10/03 04:28:25;;;;;;;6.30;1.83;;;14.30;93.00;;;;;;5013169;28;20347;-73
2022/10/03 04:31:15;;;;;;;3.95;1.27;;;14.30;92.90;;;;;;5013503;28;20088;-74
2022/10/03 04:34:16;;;;;;;6.07;1.35;;;14.30;92.90;;;;;;5013638;28;20026;-73
2022/10/03 04:36:48;;;;;;;5.68;1.77;;;14.20;92.80;;;;;;5013411;28;20029;-74
2022/10/03 04:39:32;;;;;;;6.47;1.52;;;14.20;92.70;;;;;;5013466;28;20033;-73
2022/10/03 04:42:26;;;;;;;4.68;1.30;;;14.20;92.70;;;;;;5013148;28;20080;-74
2022/10/03 04:45:27;;;;;;;4.10;1.25;;;14.20;92.70;;;;;;5013496;28;20036;-73
2022/10/03 04:48:04;;;;;;;9.55;1.65;;;14.20;92.80;;;;;;5016069;28;20021;-73
2022/10/03 04:50:43;;;;;;;6.00;1.55;;;14.20;92.80;;;;;;5017273;28;20030;-73
2022/10/03 04:53:25;;;;;;;4.95;1.20;;;14.10;92.60;;;;;;5017343;28;20076;-73
2022/10/03 04:56:24;;;;;;;5.28;1.30;;;14.10;92.60;;;;;;5016835;28;20481;-73
2022/10/03 04:59:19;;;;;;;5.93;1.25;;;14.10;92.70;;;;;;5017195;28;20381;-74
2022/10/03 05:01:54;;;;;;;4.47;1.45;;;14.10;92.80;;;;;;5016940;28;20030;-74
2022/10/03 05:04:41;;;;;;;11.52;2.13;;;14.10;92.80;;;;;;5016940;28;20093;-74
2022/10/03 05:07:15;;;;;;;5.82;1.13;;;14.10;92.70;;;;;;5016934;28;20105;-73
2022/10/03 05:10:15;;;;;;;5.65;1.35;;;14.00;92.60;;;;;;5017046;28;20021;-74
2022/10/03 05:12:49;;;;;;;4.28;1.45;;;14.00;92.60;;;;;;5019453;28;20031;-72
2022/10/03 05:15:40;;;;;;;3.63;1.15;;;14.00;92.60;;;;;;5035454;28;20049;-72
2022/10/03 05:18:18;;;;;;;4.97;1.60;;;14.00;92.60;;;;;;5024373;28;20030;-73
2022/10/03 05:20:53;;;;;;;5.50;1.40;;;14.00;92.60;;;;;;5016888;28;20029;-73
2022/10/03 05:23:43;;;;;;;5.28;1.42;;;14.00;92.60;;;;;;5016848;28;20405;-73
2022/10/03 05:26:30;;;;;;;6.13;1.30;;;13.90;92.70;;;;;;5016372;28;20371;-73
2022/10/03 05:29:10;;;;;;;5.43;1.85;;;13.90;92.70;;;;;;5016171;28;20066;-72
2022/10/03 05:31:58;;;;;;;3.78;1.75;;;13.90;92.70;;;;;;5016359;28;20397;-73
2022/10/03 05:34:33;;;;;;;3.45;1.35;;;13.90;92.70;;;;;;5016045;28;20022;-73
2022/10/03 05:37:34;;;;;;;3.50;1.25;;;13.90;92.70;;;;;;5016116;28;20032;-73
2022/10/03 05:40:26;;;;;;;7.45;1.40;;;13.90;92.80;;;;;;5016334;28;20030;-73
2022/10/03 05:43:41;;;;;;;4.82;1.98;;;13.90;92.90;;;;;;5018066;28;20080;-73
2022/10/03 05:46:39;;;;;;;5.03;1.60;;;13.90;92.90;;;;;;5022128;28;20038;-73
2022/10/03 05:49:26;;;;;;;5.68;1.65;;;13.90;92.90;;;;;;5015621;28;20038;-73
2022/10/03 05:52:33;;;;;;;6.95;1.92;;;13.90;92.90;;;;;;5015731;28;20484;-73
2022/10/03 05:55:10;;;;;;;6.40;1.58;;;13.90;92.90;;;;;;5015926;28;20056;-73
2022/10/03 05:58:29;;;;;;;9.73;2.00;;;13.90;93.00;;;;;;5015798;28;20022;-73
2022/10/03 06:01:25;;;;;;;4.65;1.95;;;13.90;93.00;;;;;;5033018;28;20393;-73
2022/10/03 06:04:06;;;;;;;5.60;1.67;;;13.80;92.90;;;;;;5015370;28;20030;-74
2022/10/03 06:07:00;;;;;;;5.63;1.55;;;13.80;92.90;;;;;;5015776;28;20346;-73
2022/10/03 06:09:53;;;;;;;7.20;2.60;;;13.70;93.00;;;;;;5015749;28;20077;-73
2022/10/03 06:12:36;;;;;;;3.92;1.80;;;13.70;93.10;;;;;;5016452;28;20441;-73
2022/10/03 06:15:05;;;;;;;6.13;2.20;;;13.70;93.10;;;;;;5015196;28;20033;-73
2022/10/03 06:17:45;;;;;;;5.15;1.80;;;13.70;93.10;;;;;;5015213;28;20030;-73
2022/10/03 06:20:29;;;;;;;7.35;2.20;;;13.70;93.10;;;;;;5015064;28;20342;-74
2022/10/03 06:23:40;;;;;;;4.00;1.80;;;13.60;93.20;;;;;;5015325;28;20029;-72
2022/10/03 06:26:23;;;;;;;4.55;1.95;;;13.60;93.30;;;;;;5014713;28;20032;-73
2022/10/03 06:29:24;;;;;;;3.47;1.77;;;13.60;93.40;;;;;;5014916;28;20026;-74
2022/10/03 06:32:03;;;;;;;2.80;1.58;;;13.60;93.40;;;;;;5014758;28;20059;-74
2022/10/03 06:34:42;;;;;;;4.70;1.67;;;13.60;93.40;;;;;;5014546;28;20025;-74
2022/10/03 06:37:16;;;;;;;3.53;1.50;;;13.70;93.40;;;;;;5014717;28;20164;-74
2022/10/03 06:40:20;;;;;;;6.40;1.60;;;13.60;93.40;;;;;;5015019;28;20063;-74
2022/10/03 06:42:58;;;;;;;3.17;1.50;;;13.70;93.40;;;;;;5014582;28;20114;-74
2022/10/03 06:45:34;;;;;;;10.70;1.58;;;13.70;93.40;;;;;;5014695;28;20033;-74
2022/10/03 06:48:25;;;;;;;3.35;1.80;;;13.70;93.40;;;;;;5014479;28;20037;-73
2022/10/03 06:51:09;;;;;;;2.90;1.52;;;13.70;93.50;;;;;;5014515;28;20033;-74
2022/10/03 06:53:50;;;;;;;3.45;1.65;;;13.60;93.50;;;;;;5014444;28;20030;-74
2022/10/03 06:56:52;;;;;;;3.60;1.40;;;13.60;93.90;;;;;;5014519;28;20033;-74
2022/10/03 06:59:29;;;;;;;3.63;1.40;;;13.50;94.00;;;;;;5014529;28;20025;-74
2022/10/03 07:02:13;;;;;;;1.85;0.90;;;13.50;94.10;;;;;;5014294;28;20033;-74
2022/10/03 07:05:00;;;;;;;2.10;0.90;;;13.40;94.10;;;;;;5014417;28;20026;-74
2022/10/03 07:07:44;;;;;;;1.83;1.52;;;13.40;94.20;;;;;;5015561;28;20462;-72
2022/10/03 07:10:20;;;;;;;3.40;1.13;;;13.40;94.40;;;;;;5015122;28;20033;-73
2022/10/03 07:13:21;;;;;;;1.75;0.80;;;13.40;94.50;;;;;;5014344;28;20022;-73
2022/10/03 07:15:56;;;;;;;8.95;1.10;;;13.40;94.60;;;;;;5020789;28;20133;-74
2022/10/03 07:18:28;;;;;;;2.47;1.15;;;13.40;94.70;;;;;;5014020;28;20022;-74
2022/10/03 07:21:24;;;;;;;1.98;1.50;;;13.40;94.80;;;;;;5014289;28;20101;-74
2022/10/03 07:24:17;;;;;;;3.97;2.05;;;13.40;94.90;;;;;;5013901;28;20424;-73
2022/10/03 07:26:45;;;;;;;3.78;2.22;;;13.30;95.10;;;;;;5013994;28;20108;-74
2022/10/03 07:29:20;;;;;;;4.20;2.10;;;13.30;95.20;;;;;;5014205;28;20030;-74
2022/10/03 07:31:52;;;;;;;4.38;1.90;;;13.30;95.40;;;;;;5013708;28;20073;-73
2022/10/03 07:34:48;;;;;;;3.95;2.00;;;13.30;95.50;;;;;;5014069;28;20101;-73
2022/10/03 07:40:21;;;;;;;8.65;2.85;;;13.60;95.60;;;;;;5013838;28;20041;-74
2022/10/03 07:43:07;;;;;;;5.45;2.30;;;13.70;95.70;;;;;;5013747;28;20022;-74
2022/10/03 07:45:44;;;;;;;5.15;1.90;;;13.80;95.80;;;;;;5013497;28;20030;-74
2022/10/03 07:48:49;;;;;;;6.38;2.40;;;14.00;95.70;;;;;;5013664;28;20022;-74
2022/10/03 07:51:53;;;;;;;4.97;2.03;;;14.00;95.80;;;;;;5013680;28;20034;-73
2022/10/03 07:54:56;;;;;;;7.00;2.25;;;14.10;95.80;;;;;;5013787;28;20018;-73
2022/10/03 07:58:06;;;;;;;5.93;2.28;;;14.10;96.30;;;;;;5013484;28;20041;-73
2022/10/03 08:01:02;;;;;;;4.75;2.10;;;14.10;96.20;;;;;;5013491;28;20030;-73
2022/10/03 08:03:55;;;;;;;6.03;2.28;;;14.20;96.10;;;;;;5014497;28;20057;-72
2022/10/03 08:06:44;;;;;;;;;;;14.40;95.90;;;;;;5014627;28;20026;-73
2022/10/03 08:09:38;;;;;;;5.13;1.90;;;14.40;96.00;;;;;;5013540;28;20262;-73
2022/10/03 08:12:12;;;;;;;6.57;2.53;;;14.60;96.10;;;;;;5013204;28;20067;-74
2022/10/03 08:14:44;;;;;;;5.75;1.90;;;14.60;96.10;;;;;;5013311;28;20084;-74
2022/10/03 08:17:33;;;;;;;5.95;2.47;;;14.80;96.10;;;;;;5013433;28;20076;-73
2022/10/03 08:20:23;;;;;;;6.50;2.03;;;14.90;96.00;;;;;;5013438;28;20080;-73
2022/10/03 08:23:23;;;;;;;6.68;2.47;;;15.00;95.90;;;;;;5015826;28;20026;-74
2022/10/03 08:25:57;;;;;;;5.90;2.15;;;15.10;95.80;;;;;;5017177;28;20037;-74
2022/10/03 08:28:51;;;;;;;5.75;2.80;;;15.20;95.70;;;;;;5017594;28;20026;-73
2022/10/03 08:31:35;;;;;;;6.80;2.80;;;15.30;95.60;;;;;;5018696;28;20096;-74
2022/10/03 08:34:17;;;;;;;8.45;2.72;;;15.30;95.50;;;;;;5017573;28;20022;-73
2022/10/03 08:37:01;;;;;;;7.95;3.63;;;15.30;95.60;;;;;;5017315;28;20030;-74
2022/10/03 08:39:52;;;;;;;5.63;2.97;;;15.30;95.70;;;;;;5017150;28;20116;-74
2022/10/03 08:42:21;;;;;;;6.53;3.20;;;15.40;95.80;;;;;;5017119;28;20041;-74
2022/10/03 08:44:56;;;;;;;8.40;3.75;;;15.50;95.90;;;;;;5017098;28;20040;-74
2022/10/03 08:48:03;;;;;;;8.48;3.25;;;15.60;96.10;;;;;;5017030;28;20025;-73
2022/10/03 08:51:15;;;;;;;7.18;3.40;;;15.70;96.10;;;;;;5020034;28;20076;-74
2022/10/03 08:53:52;;;;;;;9.50;2.83;;;15.90;96.10;;;;;;5034464;28;20030;-74
2022/10/03 08:56:40;;;;;;;12.73;3.45;;;16.00;95.80;;;;;;5034578;28;20032;-74
2022/10/03 08:59:37;;;;;;;11.10;3.22;;;16.10;95.70;;;;;;5024385;28;20045;-73
2022/10/03 09:02:40;;;;;;;4.85;2.40;;;16.10;95.60;;;;;;5016898;28;20029;-73
2022/10/03 09:05:21;;;;;;;5.22;1.90;;;16.10;95.60;;;;;;5016257;28;20036;-74
2022/10/03 09:08:24;;;;;;;9.48;2.58;;;16.20;95.40;;;;;;5016610;28;20537;-73
2022/10/03 09:11:18;;;;;;;9.50;3.20;;;16.40;95.10;;;;;;5016144;28;20036;-74
2022/10/03 09:13:50;;;;;;;9.85;2.97;;;16.60;95.00;;;;;;5016760;28;20437;-74
2022/10/03 09:16:44;;;;;;;10.20;3.17;;;16.80;95.10;;;;;;5016347;28;20026;-74
2022/10/03 09:19:32;;;;;;;8.23;2.30;;;16.90;95.60;;;;;;5015853;28;20108;-74
2022/10/03 09:22:21;;;;;;;12.18;1.80;;;17.00;95.20;;;;;;5016426;28;20031;-74
2022/10/03 09:25:18;;;;;;;6.72;1.50;;;17.10;94.60;;;;;;5016668;28;20029;-74
2022/10/03 09:27:58;;;;;;;7.13;1.38;;;17.20;94.20;;;;;;5015841;28;20513;-74
2022/10/03 09:30:42;;;;;;;5.65;1.45;;;17.30;93.90;;;;;;5016410;28;20030;-74
2022/10/03 09:33:50;;;;;;;7.65;1.50;;;17.30;93.80;;;;;;5016016;28;20117;-74
2022/10/03 09:37:11;;;;;;;6.30;1.50;;;17.40;93.40;;;;;;5016466;28;20022;-74
2022/10/03 09:40:14;;;;;;;8.85;1.73;;;17.40;93.50;;;;;;5022557;28;20041;-74
2022/10/03 09:43:02;;;;;;;7.07;1.48;;;17.60;93.40;;;;;;5016276;28;20122;-74
2022/10/03 09:45:33;;;;;;;10.73;1.92;;;17.60;93.20;;;;;;5016029;28;20048;-74
2022/10/03 09:48:04;;;;;;;8.95;1.60;;;17.70;93.20;;;;;;5016172;28;20056;-74
2022/10/03 09:50:52;;;;;;;6.07;1.27;;;17.80;92.70;;;;;;5015564;28;20033;-74
2022/10/03 09:54:05;;;;;;;8.90;1.48;;;17.90;92.60;;;;;;5016359;28;20438;-73
2022/10/03 09:56:33;;;;;;;8.35;1.58;;;17.90;92.60;;;;;;5016553;28;20033;-74
2022/10/03 09:59:33;;;;;;;6.63;1.50;;;17.90;92.40;;;;;;5015929;28;20026;-74
2022/10/03 10:02:23;;;;;;;11.48;1.70;;;18.00;92.40;;;;;;5015984;28;20022;-74
2022/10/03 10:05:03;;;;;;;8.35;1.67;;;18.00;92.60;;;;;;5015378;28;20105;-74
2022/10/03 10:07:42;;;;;;;7.93;1.48;;;18.10;92.30;;;;;;5015289;28;20060;-74
2022/10/03 10:10:27;;;;;;;8.40;1.45;;;18.00;92.30;;;;;;5015638;28;20040;-74
2022/10/03 10:13:15;;;;;;;8.60;1.67;;;18.00;92.40;;;;;;5015617;28;20025;-74
2022/10/03 10:16:17;;;;;;;5.40;1.38;;;18.00;92.20;;;;;;5015433;28;20025;-75
2022/10/03 10:19:18;;;;;;;7.47;1.77;;;18.10;92.40;;;;;;5014817;28;20033;-75
2022/10/03 10:21:49;;;;;;;8.75;1.25;;;18.20;92.30;;;;;;5014735;28;20080;-75
2022/10/03 10:24:39;;;;;;;7.95;0.90;;;18.30;92.10;;;;;;5015095;28;20092;-74
2022/10/03 10:27:35;;;;;;;8.23;1.60;;;18.30;91.40;;;;;;5014881;28;20050;-75
2022/10/03 10:30:31;;;;;;;7.82;1.20;;;18.50;91.00;;;;;;5015292;28;20105;-75
2022/10/03 10:33:27;;;;;;;9.98;1.50;;;18.60;90.70;;;;;;5015051;28;20042;-74
2022/10/03 10:36:31;;;;;;;6.47;1.63;;;18.50;90.70;;;;;;5015166;28;20045;-75
2022/10/03 10:39:42;;;;;;;8.30;1.40;;;18.50;90.80;;;;;;5015081;28;20030;-73
2022/10/03 10:42:31;;;;;;;7.32;1.10;;;18.40;90.70;;;;;;5014836;28;20049;-74
2022/10/03 10:45:12;;;;;;;6.88;1.55;;;18.30;90.80;;;;;;5013979;28;20022;-74
2022/10/03 10:47:49;;;;;;;7.00;1.20;;;18.30;91.00;;;;;;5014678;28;20034;-73
2022/10/03 10:50:49;;;;;;;8.00;1.20;;;18.50;91.00;;;;;;5016612;28;20520;-72
2022/10/03 10:53:39;;;;;;;6.68;1.30;;;18.60;90.50;;;;;;5014983;28;20034;-74
2022/10/03 10:56:13;;;;;;;7.72;1.40;;;18.70;90.40;;;;;;5014314;28;20105;-74
2022/10/03 10:58:44;;;;;;;8.85;1.38;;;18.80;90.20;;;;;;5014537;28;20478;-75
2022/10/03 11:01:37;;;;;;;9.40;1.20;;;18.80;89.60;;;;;;5014185;28;20041;-75
2022/10/03 11:04:40;;;;;;;6.97;1.73;;;18.90;89.80;;;;;;5014473;28;20477;-75
2022/10/03 11:07:45;;;;;;;7.25;0.80;;;19.00;89.00;;;;;;5014464;28;20033;-75
2022/10/03 11:10:17;;;;;;;7.07;1.00;;;19.20;87.60;;;;;;5014311;28;20032;-75
2022/10/03 11:13:29;;;;;;;4.07;1.10;;;19.40;87.90;;;;;;5014522;28;20105;-75
2022/10/03 11:16:34;;;;;;;10.15;1.27;;;19.30;85.80;;;;;;5023630;28;20486;-75
2022/10/03 11:19:21;;;;;;;6.03;0.98;;;19.10;85.20;;;;;;5019152;28;20113;-74
2022/10/03 11:22:11;;;;;;;6.72;0.82;;;18.90;86.00;;;;;;5013827;28;20028;-74
2022/10/03 11:25:11;;;;;;;4.90;0.80;;;18.90;86.10;;;;;;5013952;28;20032;-74
2022/10/03 11:27:55;;;;;;;7.13;1.20;;;18.70;86.60;;;;;;5013896;28;20054;-74
2022/10/03 11:30:49;;;;;;;7.40;1.20;;;18.60;87.10;;;;;;5013794;28;20053;-74
2022/10/03 11:33:41;;;;;;;5.70;1.00;;;18.60;87.30;;;;;;5022652;28;20044;-74
2022/10/03 11:36:32;;;;;;;5.32;0.60;;;18.50;87.40;;;;;;5013866;28;20092;-74
2022/10/03 11:39:10;;;;;;;6.30;0.68;;;18.50;87.90;;;;;;5014381;28;20033;-74
2022/10/03 11:41:50;;;;;;;4.70;0.70;;;18.60;89.90;;;;;;5014453;28;20350;-73
2022/10/03 11:44:20;;;;;;;8.98;0.77;;;18.80;88.40;;;;;;5014835;28;20065;-74
2022/10/03 11:47:15;;;;;;;5.90;0.60;;;19.00;86.10;;;;;;5014354;28;20033;-74
2022/10/03 11:49:52;;;;;;;3.22;0.47;;;19.20;85.10;;;;;;5021005;28;20037;-74
2022/10/03 11:52:26;;;;;;;4.20;0.50;;;19.30;83.60;;;;;;5013600;28;20112;-74
2022/10/03 11:55:07;;;;;;;6.88;0.70;;;19.30;82.50;;;;;;5013700;28;20075;-74
2022/10/03 11:57:38;;;;;;;4.18;0.85;;;19.30;83.30;;;;;;5013104;28;20487;-75
2022/10/03 12:00:37;;;;;;;6.57;0.80;;;19.30;84.00;;;;;;5013552;28;20178;-75
2022/10/03 12:03:16;;;;;;;7.72;1.20;;;19.40;84.40;;;;;;5013232;28;20501;-75
2022/10/03 12:05:49;;;;;;;8.15;1.42;;;19.50;84.40;;;;;;5013064;28;20462;-76
2022/10/03 12:11:59;;;;;;;8.05;0.70;;;19.60;82.80;;;;;;5013197;28;20524;-74
2022/10/03 12:14:36;;;;;;;4.30;0.45;;;19.70;82.90;;;;;;5013611;28;20457;-74
2022/10/03 12:17:14;;;;;;;4.88;0.50;;;19.50;78.60;;;;;;5013587;28;20385;-74
2022/10/03 12:19:58;;;;;;;10.10;0.80;;;19.50;78.30;;;;;;5013236;28;20058;-74
2022/10/03 12:22:36;;;;;;;10.30;0.60;;;19.40;79.30;;;;;;5013603;28;20026;-74
2022/10/03 12:25:20;;;;;;;4.82;0.50;;;19.40;79.50;;;;;;5013471;28;20030;-74
2022/10/03 12:28:11;;;;;;;5.63;0.50;;;19.40;78.80;;;;;;5013346;28;20125;-75
2022/10/03 12:30:46;;;;;;;6.38;0.50;;;19.40;79.20;;;;;;5012923;28;20037;-75
2022/10/03 12:33:50;;;;;;;6.75;0.35;;;19.40;79.20;;;;;;5013334;28;20122;-75
2022/10/03 12:36:47;;;;;;;1.83;0.30;;;19.30;78.90;;;;;;5015611;28;20121;-75
2022/10/03 12:39:41;;;;;;;1.58;0.20;;;19.30;79.10;;;;;;5014276;28;20046;-73
2022/10/03 12:42:26;;;;;;;5.85;0.50;;;19.30;78.90;;;;;;5013881;28;20485;-74
2022/10/03 12:45:00;;;;;;;3.80;0.60;;;19.30;79.30;;;;;;5013220;28;20018;-74
2022/10/03 12:47:35;;;;;;;4.30;0.40;;;19.30;78.40;;;;;;5013405;28;20030;-74
2022/10/03 12:50:08;;;;;;;5.13;0.60;;;19.30;78.00;;;;;;5013167;28;20025;-74
2022/10/03 12:52:45;;;;;;;5.22;0.70;;;19.20;78.10;;;;;;5013020;28;20045;-75
2022/10/03 12:55:14;;;;;;;9.57;0.60;;;19.20;78.20;;;;;;5013079;28;20034;-74
2022/10/03 12:58:10;;;;;;;8.18;1.05;;;19.20;78.70;;;;;;5012818;28;20366;-74
2022/10/03 13:01:05;;;;;;;4.35;0.38;;;19.20;78.10;;;;;;5012663;28;20054;-74
2022/10/03 13:04:15;;;;;;;5.72;0.47;;;19.20;78.50;;;;;;5013173;28;20057;-75
2022/10/03 13:06:48;;;;;;;2.83;0.60;;;19.20;78.80;;;;;;5016672;28;20092;-74
2022/10/03 13:09:48;;;;;;;5.53;0.60;;;19.20;79.70;;;;;;5016117;28;20029;-75
2022/10/03 13:12:27;;;;;;;7.55;0.73;;;19.10;78.40;;;;;;5016636;28;20037;-74
2022/10/03 13:15:30;;;;;;;4.22;0.60;;;19.00;78.20;;;;;;5016854;28;20033;-75
2022/10/03 13:18:17;;;;;;;7.70;0.98;;;19.00;79.20;;;;;;5016565;28;20029;-75
2022/10/03 13:20:58;;;;;;;5.22;0.75;;;18.90;79.60;;;;;;5016389;28;20080;-74
2022/10/03 13:23:38;;;;;;;5.18;0.60;;;18.90;80.20;;;;;;5016213;28;20025;-74
2022/10/03 13:26:20;;;;;;;3.10;0.32;;;18.90;80.90;;;;;;5015899;28;20030;-75
2022/10/03 13:28:55;;;;;;;4.03;0.52;;;18.90;81.80;;;;;;5015744;28;20061;-74
2022/10/03 13:31:27;;;;;;;6.13;0.45;;;18.80;81.60;;;;;;5015844;28;20042;-75
2022/10/03 13:34:01;;;;;;;9.10;1.00;;;18.80;81.70;;;;;;5016491;28;20045;-73
2022/10/03 13:36:46;;;;;;;9.27;0.60;;;18.70;81.70;;;;;;5017268;28;20033;-74
2022/10/03 13:39:22;;;;;;;4.78;0.70;;;18.70;82.00;;;;;;5015871;28;20079;-75
2022/10/03 13:42:27;;;;;;;4.45;0.43;;;18.80;82.10;;;;;;5015706;28;20050;-73
2022/10/03 13:44:59;;;;;;;4.13;0.93;;;18.80;82.30;;;;;;5015873;28;20026;-74
2022/10/03 13:47:41;;;;;;;7.35;0.98;;;18.80;81.70;;;;;;5015809;28;20112;-74
2022/10/03 13:50:15;;;;;;;5.85;0.52;;;18.70;82.00;;;;;;5015879;28;20022;-74
2022/10/03 13:53:03;;;;;;;11.38;0.90;;;18.70;81.90;;;;;;5015978;28;20034;-74
2022/10/03 13:55:42;;;;;;;6.03;1.00;;;18.70;81.80;;;;;;5015876;28;20054;-75
2022/10/03 13:58:25;;;;;;;3.92;0.40;;;18.70;82.30;;;;;;5015772;28;20048;-74
2022/10/03 14:01:04;;;;;;;8.13;0.70;;;18.80;82.60;;;;;;5015679;28;20501;-75
2022/10/03 14:03:30;;;;;;;5.03;0.50;;;18.80;82.90;;;;;;5016023;28;20021;-75
2022/10/03 14:06:09;;;;;;;5.85;0.60;;;18.90;83.10;;;;;;5015403;28;20029;-74
2022/10/03 14:08:48;;;;;;;4.32;0.57;;;19.00;83.10;;;;;;5015256;28;20500;-75
2022/10/03 14:11:55;;;;;;;4.72;0.52;;;19.00;82.50;;;;;;5015443;28;20037;-75
2022/10/03 14:14:51;;;;;;;5.45;0.68;;;19.00;81.90;;;;;;5025130;28;20034;-75
2022/10/03 14:17:25;;;;;;;5.57;0.68;;;19.10;82.00;;;;;;5015566;28;20026;-74
2022/10/03 14:19:56;;;;;;;5.53;0.88;;;19.10;81.60;;;;;;5013849;28;20022;-75
2022/10/03 14:22:43;;;;;;;4.78;0.43;;;19.20;82.60;;;;;;5014995;28;20465;-74
2022/10/03 14:25:24;;;;;;;4.20;0.77;;;19.30;83.00;;;;;;5015365;28;20068;-75
2022/10/03 14:27:52;;;;;;;5.15;0.40;;;19.30;83.60;;;;;;5015033;28;20444;-75
2022/10/03 14:30:45;;;;;;;5.07;0.43;;;19.30;82.60;;;;;;5016571;28;20474;-74
2022/10/03 14:33:32;;;;;;;6.63;0.50;;;19.20;81.90;;;;;;5016569;28;20040;-75
2022/10/03 14:36:10;;;;;;;6.88;0.47;;;19.20;80.60;;;;;;5015289;28;20024;-75
2022/10/03 14:39:06;;;;;;;7.35;0.75;;;19.10;80.30;;;;;;5015268;28;20033;-75
2022/10/03 14:41:31;;;;;;;7.43;0.63;;;19.00;80.00;;;;;;5014805;28;20037;-75